Time;durP1;ratioP1;P1;durP2;ratioP2;P2;SDS_P1;SDS_P2;PMS_P1;PMS_P2;Temp;Humidity;BMP_temperature;BMP_pressure;BME280_temperature;BME280_humidity;BME280_pressure;Samples;Min_cycle;Max_cycle;Signal;HPM_P1;HPM_P2
2024/01/07 00:00:24;;;;;;;;;;;;;;;5.37;92.74;101205.25;5063873;28;20413;-57
2024/01/07 00:02:51;;;;;;;;;;;;;;;5.35;92.71;101207.41;5065136;28;19924;-59
2024/01/07 00:05:18;;;;;;;;;;;;;;;5.37;92.25;101203.31;5063397;28;19920;-64
2024/01/07 00:07:48;;;;;;;;;;;;;;;5.37;91.12;101210.72;5055790;28;19924;-63
2024/01/07 00:10:15;;;;;;;;;;;;;;;5.41;91.69;101214.53;5061548;28;19924;-62
2024/01/07 00:12:42;;;;;;;;;;;;;;;5.31;91.74;101222.69;5067770;28;19924;-64
2024/01/07 00:15:09;;;;;;;;;;;;;;;5.29;91.75;101225.69;5067132;28;19924;-64
2024/01/07 00:17:36;;;;;;;;;;;;;;;5.02;92.44;101221.44;5060529;28;19924;-64
2024/01/07 00:20:04;;;;;;;;;;;;;;;5.10;92.37;101229.13;5056929;28;19924;-63
2024/01/07 00:22:31;;;;;;;;;;;;;;;5.25;91.85;101218.28;5050157;28;19924;-65
2024/01/07 00:24:58;;;;;;;;;;;;;;;5.14;92.00;101222.06;5056141;28;19931;-63
2024/01/07 00:27:26;;;;;;;;;;;;;;;5.01;92.09;101222.53;5061262;28;19924;-63
2024/01/07 00:29:53;;;;;;;;;;;;;;;5.27;92.21;101219.66;5053814;28;19924;-65
2024/01/07 00:32:20;;;;;;;;;;;;;;;5.27;91.66;101218.84;5060451;28;19921;-63
2024/01/07 00:34:47;;;;;;;;;;;;;;;5.35;91.67;101215.63;5050997;28;19931;-63
2024/01/07 00:37:17;;;;;;;;;;;;;;;5.03;91.68;101221.19;5058322;28;19924;-64
2024/01/07 00:39:45;;;;;;;;;;;;;;;5.00;91.83;101221.72;5058660;28;19920;-63
2024/01/07 00:42:13;;;;;;;;;;;;;;;5.03;92.14;101232.09;5063757;28;19924;-65
2024/01/07 00:44:40;;;;;;;;;;;;;;;5.07;92.31;101224.22;5054034;28;19925;-64
2024/01/07 00:47:07;;;;;;;;;;;;;;;5.02;91.21;101224.97;5059272;28;20279;-64
2024/01/07 00:49:34;;;;;;;;;;;;;;;4.89;92.68;101230.94;5058535;28;19929;-64
2024/01/07 00:52:01;;;;;;;;;;;;;;;5.11;92.18;101228.06;5059564;28;19931;-63
2024/01/07 00:54:28;;;;;;;;;;;;;;;5.03;90.76;101228.53;5054303;28;19933;-65
2024/01/07 00:56:56;;;;;;;;;;;;;;;5.08;90.59;101234.03;5058763;28;19943;-63
2024/01/07 00:59:23;;;;;;;;;;;;;;;5.10;89.87;101231.88;5066458;28;19924;-63
2024/01/07 01:01:50;;;;;;;;;;;;;;;4.95;91.00;101231.78;5059229;28;19935;-63
2024/01/07 01:04:17;;;;;;;;;;;;;;;5.08;89.99;101223.94;5060142;28;19928;-63
2024/01/07 01:06:44;;;;;;;;;;;;;;;5.15;89.25;101234.63;5069576;28;20034;-63
2024/01/07 01:09:12;;;;;;;;;;;;;;;5.07;88.91;101222.31;5067720;28;20597;-63
2024/01/07 01:11:39;;;;;;;;;;;;;;;4.98;89.47;101236.72;5062306;28;19927;-63
2024/01/07 01:14:06;;;;;;;;;;;;;;;5.01;90.36;101233.44;5067566;28;19924;-64
2024/01/07 01:16:33;;;;;;;;;;;;;;;5.10;90.09;101232.69;5053926;28;20417;-63
2024/01/07 01:19:03;;;;;;;;;;;;;;;5.00;89.23;101229.09;5068135;28;19920;-65
2024/01/07 01:21:38;;;;;;;;;;;;;;;5.08;90.01;101237.59;5068231;28;19924;-64
2024/01/07 01:24:27;;;;;;;;;;;;;;;4.91;89.54;101245.13;5081260;28;19925;-63
2024/01/07 01:26:56;;;;;;;;;;;;;;;4.85;89.03;101250.81;5040861;28;20414;-63
2024/01/07 01:29:30;;;;;;;;;;;;;;;5.07;89.05;101246.06;5062208;28;20379;-64
2024/01/07 01:31:58;;;;;;;;;;;;;;;5.05;87.47;101249.06;5061376;28;19932;-64
2024/01/07 01:34:26;;;;;;;;;;;;;;;5.21;88.40;101250.75;5042276;28;19924;-64
2024/01/07 01:37:00;;;;;;;;;;;;;;;5.13;86.59;101258.63;5082999;28;19931;-64
2024/01/07 01:39:44;;;;;;;;;;;;;;;4.83;87.49;101258.44;5058342;28;19929;-64
2024/01/07 01:42:12;;;;;;;;;;;;;;;4.87;88.43;101263.13;5054771;28;19924;-65
2024/01/07 01:44:41;;;;;;;;;;;;;;;4.85;87.88;101253.53;5038904;28;19921;-63
2024/01/07 01:47:12;;;;;;;;;;;;;;;4.92;88.03;101270.50;5052718;28;19924;-64
2024/01/07 01:49:43;;;;;;;;;;;;;;;5.05;87.34;101267.31;5084262;28;19933;-63
2024/01/07 01:52:11;;;;;;;;;;;;;;;5.04;87.20;101266.50;5057343;28;19924;-64
2024/01/07 01:54:38;;;;;;;;;;;;;;;4.93;87.71;101272.16;5058114;28;19920;-63
2024/01/07 01:57:05;;;;;;;;;;;;;;;4.77;88.00;101273.97;5056690;28;19929;-62
2024/01/07 01:59:33;;;;;;;;;;;;;;;4.97;87.75;101282.28;5093463;28;20426;-63
2024/01/07 02:02:01;;;;;;;;;;;;;;;5.06;87.34;101275.25;5062171;28;19931;-63
2024/01/07 02:04:29;;;;;;;;;;;;;;;5.11;86.84;101280.75;5058916;28;19931;-64
2024/01/07 02:06:56;;;;;;;;;;;;;;;5.06;86.61;101280.72;5061183;28;19959;-63
2024/01/07 02:09:23;;;;;;;;;;;;;;;4.70;87.42;101276.09;5079353;28;19931;-64
2024/01/07 02:12:02;;;;;;;;;;;;;;;4.77;88.81;101284.03;5059402;28;19977;-64
2024/01/07 02:14:31;;;;;;;;;;;;;;;4.87;88.16;101282.22;5068513;28;19924;-63
2024/01/07 02:17:21;;;;;;;;;;;;;;;4.96;87.92;101288.00;5053120;28;19920;-64
2024/01/07 02:19:48;;;;;;;;;;;;;;;4.82;86.93;101286.81;5065600;28;19925;-66
2024/01/07 02:22:16;;;;;;;;;;;;;;;5.06;86.49;101286.16;5071693;28;19942;-63
2024/01/07 02:24:43;;;;;;;;;;;;;;;4.92;86.09;101279.53;5068350;28;19955;-64
2024/01/07 02:27:10;;;;;;;;;;;;;;;4.83;86.17;101285.75;5071537;28;19924;-65
2024/01/07 02:29:37;;;;;;;;;;;;;;;4.91;85.94;101291.53;5066719;28;19925;-63
2024/01/07 02:32:04;;;;;;;;;;;;;;;4.93;84.46;101299.47;5050721;28;19921;-64
2024/01/07 02:34:31;;;;;;;;;;;;;;;5.05;84.02;101294.63;5064473;28;19925;-62
2024/01/07 02:36:58;;;;;;;;;;;;;;;5.06;84.79;101285.34;5065540;28;20329;-63
2024/01/07 02:39:25;;;;;;;;;;;;;;;5.37;83.72;101281.72;5067793;28;19931;-62
2024/01/07 02:41:52;;;;;;;;;;;;;;;5.17;83.30;101293.34;5050729;28;19925;-63
2024/01/07 02:44:19;;;;;;;;;;;;;;;5.09;83.89;101288.38;5069110;28;19924;-63
2024/01/07 02:46:46;;;;;;;;;;;;;;;5.05;84.43;101281.81;5063379;28;19928;-63
2024/01/07 02:49:14;;;;;;;;;;;;;;;4.94;84.71;101282.81;5057587;28;19953;-63
2024/01/07 02:51:42;;;;;;;;;;;;;;;4.98;84.34;101291.31;5057422;28;20497;-63
2024/01/07 02:54:09;;;;;;;;;;;;;;;4.93;84.81;101286.66;5065317;28;19924;-63
2024/01/07 02:56:36;;;;;;;;;;;;;;;4.86;85.05;101283.31;5061045;28;19936;-63
2024/01/07 02:59:03;;;;;;;;;;;;;;;4.92;84.83;101286.88;5062968;28;19931;-66
2024/01/07 03:01:30;;;;;;;;;;;;;;;5.03;84.50;101285.88;5064867;28;19948;-63
2024/01/07 03:03:58;;;;;;;;;;;;;;;4.60;83.79;101289.66;5068513;28;20319;-63
2024/01/07 03:06:27;;;;;;;;;;;;;;;4.80;83.56;101294.44;5059868;28;19928;-63
2024/01/07 03:08:55;;;;;;;;;;;;;;;4.68;84.19;101299.25;5061816;28;19924;-62
2024/01/07 03:11:22;;;;;;;;;;;;;;;4.71;83.26;101296.81;5063054;28;19920;-62
2024/01/07 03:13:49;;;;;;;;;;;;;;;4.63;83.19;101304.66;5048276;28;19925;-63
2024/01/07 03:16:22;;;;;;;;;;;;;;;4.63;83.06;101297.31;5059476;28;20000;-65
2024/01/07 03:18:49;;;;;;;;;;;;;;;4.74;82.46;101301.78;5069955;28;20573;-64
2024/01/07 03:21:19;;;;;;;;;;;;;;;4.83;81.94;101302.13;5057370;28;19935;-62
2024/01/07 03:23:47;;;;;;;;;;;;;;;4.82;81.14;101306.75;5048720;28;20406;-64
2024/01/07 03:26:14;;;;;;;;;;;;;;;4.64;81.70;101298.94;5054698;28;19931;-55
2024/01/07 03:28:41;;;;;;;;;;;;;;;4.69;81.13;101304.44;5084441;28;20419;-58
2024/01/07 03:31:10;;;;;;;;;;;;;;;4.76;80.85;101306.97;5051274;28;19925;-58
2024/01/07 03:33:38;;;;;;;;;;;;;;;4.62;81.56;101292.13;5061339;28;19924;-56
2024/01/07 03:36:08;;;;;;;;;;;;;;;4.33;82.54;101300.59;5061935;28;19924;-56
2024/01/07 03:38:36;;;;;;;;;;;;;;;4.40;82.68;101311.28;5068880;28;19924;-57
2024/01/07 03:41:03;;;;;;;;;;;;;;;4.54;82.02;101298.88;5055195;28;19936;-59
2024/01/07 03:43:30;;;;;;;;;;;;;;;4.47;82.12;101306.44;5061210;28;19925;-56
2024/01/07 03:45:57;;;;;;;;;;;;;;;4.46;81.75;101302.88;5070988;28;19930;-57
2024/01/07 03:48:24;;;;;;;;;;;;;;;4.34;82.73;101304.16;5081852;28;19931;-56
2024/01/07 03:50:52;;;;;;;;;;;;;;;4.24;83.22;101310.31;5058899;28;19931;-62
2024/01/07 03:53:19;;;;;;;;;;;;;;;4.52;82.87;101315.50;5080455;28;19931;-57
2024/01/07 03:55:46;;;;;;;;;;;;;;;4.42;82.10;101309.97;5053871;28;19931;-58
2024/01/07 03:58:13;;;;;;;;;;;;;;;4.51;81.42;101310.31;5060250;28;19924;-57
2024/01/07 04:00:41;;;;;;;;;;;;;;;4.44;81.20;101306.97;5058034;28;19928;-56
2024/01/07 04:03:08;;;;;;;;;;;;;;;4.71;80.46;101326.03;5065683;28;20827;-55
2024/01/07 04:05:35;;;;;;;;;;;;;;;4.60;80.59;101311.47;5064761;28;19928;-54
2024/01/07 04:08:02;;;;;;;;;;;;;;;4.76;80.28;101307.78;5058991;28;19927;-57
2024/01/07 04:10:29;;;;;;;;;;;;;;;4.71;80.31;101317.84;5061925;28;20379;-58
2024/01/07 04:12:56;;;;;;;;;;;;;;;4.26;81.26;101305.44;5066709;28;19927;-57
2024/01/07 04:15:23;;;;;;;;;;;;;;;4.44;80.45;101310.53;5075907;28;19931;-58
2024/01/07 04:17:51;;;;;;;;;;;;;;;4.43;80.81;101314.31;5067487;28;19924;-55
2024/01/07 04:20:18;;;;;;;;;;;;;;;4.46;80.84;101319.25;5058487;28;20355;-55
2024/01/07 04:22:45;;;;;;;;;;;;;;;4.20;82.05;101316.53;5052425;28;19928;-56
2024/01/07 04:25:12;;;;;;;;;;;;;;;4.43;81.36;101313.47;5055094;28;19925;-60
2024/01/07 04:27:39;;;;;;;;;;;;;;;4.42;81.15;101315.41;5061007;28;19925;-55
2024/01/07 04:30:06;;;;;;;;;;;;;;;4.49;81.40;101312.47;5048293;28;19925;-55
2024/01/07 04:32:33;;;;;;;;;;;;;;;4.72;80.93;101333.97;5065133;28;19940;-56
2024/01/07 04:35:01;;;;;;;;;;;;;;;4.78;80.47;101332.09;5057871;28;19961;-57
2024/01/07 04:37:28;;;;;;;;;;;;;;;4.79;80.04;101331.00;5051729;28;19948;-58
2024/01/07 04:39:55;;;;;;;;;;;;;;;4.77;80.80;101325.81;5077439;28;19924;-58
2024/01/07 04:42:22;;;;;;;;;;;;;;;4.69;81.04;101328.19;5056014;28;20362;-57
2024/01/07 04:44:49;;;;;;;;;;;;;;;4.23;82.60;101335.94;5066453;28;19932;-56
2024/01/07 04:47:29;;;;;;;;;;;;;;;4.47;83.35;101331.81;5062999;28;19931;-56
2024/01/07 04:49:56;;;;;;;;;;;;;;;4.54;82.38;101326.97;5067028;28;20339;-60
2024/01/07 04:52:24;;;;;;;;;;;;;;;4.36;83.48;101319.16;5063790;28;19924;-57
2024/01/07 04:54:51;;;;;;;;;;;;;;;4.59;82.55;101323.47;5066968;28;19924;-57
2024/01/07 04:57:19;;;;;;;;;;;;;;;4.63;81.39;101323.75;5067792;28;19928;-57
2024/01/07 04:59:46;;;;;;;;;;;;;;;4.21;82.68;101320.91;5050698;28;20429;-58
2024/01/07 05:02:13;;;;;;;;;;;;;;;4.20;83.46;101335.63;5044969;28;19924;-58
2024/01/07 05:04:43;;;;;;;;;;;;;;;4.31;83.68;101332.75;5046696;28;19936;-57
2024/01/07 05:07:10;;;;;;;;;;;;;;;4.33;83.33;101338.75;5046671;28;19925;-59
2024/01/07 05:09:38;;;;;;;;;;;;;;;4.48;83.23;101332.66;5046367;28;20292;-57
2024/01/07 05:12:06;;;;;;;;;;;;;;;4.62;82.04;101333.03;5063393;28;19931;-58
2024/01/07 05:14:33;;;;;;;;;;;;;;;4.40;82.34;101336.66;5065989;28;19925;-58
2024/01/07 05:17:00;;;;;;;;;;;;;;;4.03;84.88;101340.31;5062701;28;19924;-57
2024/01/07 05:19:27;;;;;;;;;;;;;;;4.08;84.56;101338.47;5065648;28;20271;-54
2024/01/07 05:21:55;;;;;;;;;;;;;;;4.10;84.68;101341.78;5065986;28;19932;-55
2024/01/07 05:24:22;;;;;;;;;;;;;;;3.95;84.88;101355.25;5066207;28;19924;-62
2024/01/07 05:26:49;;;;;;;;;;;;;;;4.26;84.57;101354.50;5065042;28;19924;-57
2024/01/07 05:29:16;;;;;;;;;;;;;;;4.27;83.50;101347.97;5066074;28;19925;-58
2024/01/07 05:31:43;;;;;;;;;;;;;;;4.47;83.48;101344.63;5066297;28;19928;-56
2024/01/07 05:34:10;;;;;;;;;;;;;;;4.15;83.88;101347.28;5066419;28;19925;-57
2024/01/07 05:36:38;;;;;;;;;;;;;;;4.37;84.13;101359.00;5081716;28;20678;-57
2024/01/07 05:39:06;;;;;;;;;;;;;;;4.36;83.81;101357.34;5055247;28;19932;-57
2024/01/07 05:41:33;;;;;;;;;;;;;;;4.19;84.30;101359.34;5064399;28;19928;-57
2024/01/07 05:44:00;;;;;;;;;;;;;;;4.31;84.60;101351.00;5045242;28;19924;-56
2024/01/07 05:46:27;;;;;;;;;;;;;;;4.16;84.86;101368.03;5045985;28;19925;-57
2024/01/07 05:48:54;;;;;;;;;;;;;;;4.03;85.41;101362.97;5058160;28;19936;-56
2024/01/07 05:51:21;;;;;;;;;;;;;;;3.90;86.44;101365.25;5065605;28;19924;-57
2024/01/07 05:53:48;;;;;;;;;;;;;;;4.09;86.75;101369.31;5080878;28;19929;-58
2024/01/07 05:56:15;;;;;;;;;;;;;;;4.12;86.50;101366.06;5064515;28;19924;-62
2024/01/07 05:58:42;;;;;;;;;;;;;;;4.15;86.33;101374.53;5065590;28;19924;-62
2024/01/07 06:01:09;;;;;;;;;;;;;;;4.14;85.99;101380.25;5064384;28;19936;-62
2024/01/07 06:03:37;;;;;;;;;;;;;;;4.07;86.09;101369.56;5066650;28;19925;-62
2024/01/07 06:06:04;;;;;;;;;;;;;;;4.26;86.19;101384.50;5065841;28;19924;-62
2024/01/07 06:08:32;;;;;;;;;;;;;;;4.04;86.53;101380.97;5056536;28;20523;-61
2024/01/07 06:10:59;;;;;;;;;;;;;;;3.79;88.66;101375.19;5065555;28;19924;-62
2024/01/07 06:13:26;;;;;;;;;;;;;;;4.12;88.04;101385.97;5065976;28;20412;-64
2024/01/07 06:15:53;;;;;;;;;;;;;;;4.14;87.83;101385.72;5066520;28;19924;-63
2024/01/07 06:18:20;;;;;;;;;;;;;;;4.17;87.24;101383.28;5065897;28;19962;-62
2024/01/07 06:20:47;;;;;;;;;;;;;;;4.14;87.67;101381.09;5066264;28;19930;-62
2024/01/07 06:23:15;;;;;;;;;;;;;;;4.04;88.88;101380.97;5065891;28;19924;-62
2024/01/07 06:25:42;;;;;;;;;;;;;;;4.13;88.28;101379.44;5066211;28;19924;-63
2024/01/07 06:28:10;;;;;;;;;;;;;;;4.13;88.59;101376.69;5081418;28;20407;-62
2024/01/07 06:30:37;;;;;;;;;;;;;;;4.36;88.25;101384.59;5065358;28;19925;-63
2024/01/07 06:33:05;;;;;;;;;;;;;;;3.98;89.70;101376.53;5066060;28;19924;-63
2024/01/07 06:35:32;;;;;;;;;;;;;;;4.12;90.03;101377.78;5065624;28;19929;-62
2024/01/07 06:37:59;;;;;;;;;;;;;;;4.25;89.81;101382.84;5066444;28;19928;-61
2024/01/07 06:40:26;;;;;;;;;;;;;;;4.51;88.95;101382.06;5067609;28;19924;-63
2024/01/07 06:42:53;;;;;;;;;;;;;;;4.33;88.23;101373.38;5069001;28;19931;-62
2024/01/07 06:45:21;;;;;;;;;;;;;;;4.25;89.74;101384.75;5069541;28;19939;-63
2024/01/07 06:47:48;;;;;;;;;;;;;;;4.00;90.34;101381.72;5102315;28;19924;-62
2024/01/07 06:50:16;;;;;;;;;;;;;;;4.09;91.39;101378.31;5101272;28;19928;-64
2024/01/07 06:52:43;;;;;;;;;;;;;;;4.08;92.02;101382.09;5083796;28;20278;-64
2024/01/07 06:55:10;;;;;;;;;;;;;;;3.91;93.03;101388.69;5072514;28;19924;-63
2024/01/07 06:57:37;;;;;;;;;;;;;;;3.94;93.49;101391.72;5069671;28;19928;-63
2024/01/07 07:00:05;;;;;;;;;;;;;;;3.94;94.42;101402.63;5069353;28;19925;-63
2024/01/07 07:02:32;;;;;;;;;;;;;;;4.00;93.27;101398.06;5084999;28;19925;-63
2024/01/07 07:04:59;;;;;;;;;;;;;;;3.96;93.83;101400.47;5068555;28;19924;-62
2024/01/07 07:07:26;;;;;;;;;;;;;;;4.02;93.09;101399.47;5069261;28;19924;-62
2024/01/07 07:09:53;;;;;;;;;;;;;;;4.19;92.37;101400.22;5069262;28;19924;-61
2024/01/07 07:12:22;;;;;;;;;;;;;;;3.90;92.44;101415.13;5068671;28;19932;-61
2024/01/07 07:14:50;;;;;;;;;;;;;;;3.68;93.32;101414.25;5070114;28;19939;-64
2024/01/07 07:17:17;;;;;;;;;;;;;;;3.59;93.96;101414.97;5071809;28;19947;-63
2024/01/07 07:20:02;;;;;;;;;;;;;;;3.63;94.71;101424.28;5059438;28;20269;-63
2024/01/07 07:22:43;;;;;;;;;;;;;;;3.82;94.09;101412.03;5085137;28;19924;-62
2024/01/07 07:25:10;;;;;;;;;;;;;;;3.75;93.08;101420.34;5089575;28;19924;-62
2024/01/07 07:27:37;;;;;;;;;;;;;;;3.65;92.92;101428.41;5088395;28;19931;-62
2024/01/07 07:30:05;;;;;;;;;;;;;;;3.84;93.25;101437.94;5068406;28;19935;-58
2024/01/07 07:32:32;;;;;;;;;;;;;;;3.78;92.28;101432.66;5069204;28;20314;-57
2024/01/07 07:34:59;;;;;;;;;;;;;;;4.05;91.86;101436.28;5068749;28;19943;-55
2024/01/07 07:37:26;;;;;;;;;;;;;;;4.15;90.03;101439.19;5067124;28;19932;-57
2024/01/07 07:39:54;;;;;;;;;;;;;;;4.22;89.44;101434.34;5086640;28;19935;-52
2024/01/07 07:42:21;;;;;;;;;;;;;;;4.05;89.39;101442.56;5069691;28;19932;-56
2024/01/07 07:44:49;;;;;;;;;;;;;;;3.71;91.54;101441.03;5069056;28;19924;-57
2024/01/07 07:47:16;;;;;;;;;;;;;;;3.82;91.22;101453.69;5067841;28;19924;-56
2024/01/07 07:49:43;;;;;;;;;;;;;;;3.97;90.67;101443.03;5079258;28;19931;-57
2024/01/07 07:52:10;;;;;;;;;;;;;;;3.98;89.43;101454.72;5069123;28;19929;-57
2024/01/07 07:54:37;;;;;;;;;;;;;;;3.88;88.60;101444.53;5068974;28;19931;-57
2024/01/07 07:57:05;;;;;;;;;;;;;;;3.91;89.04;101441.31;5068765;28;19924;-63
2024/01/07 07:59:32;;;;;;;;;;;;;;;3.92;88.18;101464.75;5101015;28;20007;-63
2024/01/07 08:01:59;;;;;;;;;;;;;;;3.99;88.18;101461.84;5069345;28;19940;-63
2024/01/07 08:04:27;;;;;;;;;;;;;;;3.91;86.01;101462.25;5070533;28;20466;-62
2024/01/07 08:06:56;;;;;;;;;;;;;;;3.66;86.67;101476.34;5067779;28;19924;-62
2024/01/07 08:09:25;;;;;;;;;;;;;;;3.97;86.32;101474.91;5069542;28;20605;-62
2024/01/07 08:11:52;;;;;;;;;;;;;;;3.80;85.83;101474.91;5069101;28;19925;-63
2024/01/07 08:14:19;;;;;;;;;;;;;;;3.79;86.70;101458.81;5087064;28;19931;-62
2024/01/07 08:16:46;;;;;;;;;;;;;;;3.89;86.51;101469.91;5081313;28;20024;-62
2024/01/07 08:19:13;;;;;;;;;;;;;;;3.93;85.24;101468.28;5069434;28;20551;-63
2024/01/07 08:21:41;;;;;;;;;;;;;;;3.93;85.24;101479.19;5069937;28;19936;-63
2024/01/07 08:24:10;;;;;;;;;;;;;;;3.78;85.25;101484.44;5069035;28;19924;-62
2024/01/07 08:26:37;;;;;;;;;;;;;;;3.70;85.78;101487.56;5068060;28;20472;-63
2024/01/07 08:29:04;;;;;;;;;;;;;;;3.85;86.63;101485.09;5067314;28;19935;-63
2024/01/07 08:31:31;;;;;;;;;;;;;;;3.92;85.63;101474.84;5067469;28;19924;-62
2024/01/07 08:33:59;;;;;;;;;;;;;;;4.08;84.70;101477.50;5053072;28;19932;-66
2024/01/07 08:36:29;;;;;;;;;;;;;;;4.13;84.37;101480.28;5068528;28;19935;-64
2024/01/07 08:38:56;;;;;;;;;;;;;;;3.92;84.47;101472.09;5085855;28;20190;-64
2024/01/07 08:41:23;;;;;;;;;;;;;;;3.84;84.33;101481.53;5070753;28;19924;-63
2024/01/07 08:43:51;;;;;;;;;;;;;;;3.82;83.11;101497.28;5061362;28;19924;-65
2024/01/07 08:46:21;;;;;;;;;;;;;;;3.80;83.65;101490.47;5057806;28;19935;-64
2024/01/07 08:48:48;;;;;;;;;;;;;;;4.03;82.49;101491.06;5070747;28;19924;-63
2024/01/07 08:51:34;;;;;;;;;;;;;;;3.94;81.44;101503.47;5067956;28;19924;-65
2024/01/07 08:54:06;;;;;;;;;;;;;;;3.75;81.68;101509.47;5067225;28;20609;-60
2024/01/07 08:56:33;;;;;;;;;;;;;;;3.71;82.18;101500.13;5056103;28;19925;-57
2024/01/07 08:59:00;;;;;;;;;;;;;;;3.97;81.52;101516.63;5059692;28;19924;-58
2024/01/07 09:01:27;;;;;;;;;;;;;;;3.98;80.08;101511.97;5068211;28;19924;-56
2024/01/07 09:03:55;;;;;;;;;;;;;;;3.98;79.67;101507.34;5045510;28;19925;-59
2024/01/07 09:06:46;;;;;;;;;;;;;;;3.93;79.30;101499.09;5063015;28;19943;-58
2024/01/07 09:09:23;;;;;;;;;;;;;;;3.95;79.58;101502.41;5068957;28;19931;-59
2024/01/07 09:11:52;;;;;;;;;;;;;;;3.99;78.87;101513.63;5066396;28;19925;-58
2024/01/07 09:14:19;;;;;;;;;;;;;;;4.25;78.26;101508.25;5067148;28;19931;-58
2024/01/07 09:16:46;;;;;;;;;;;;;;;4.12;76.50;101511.38;5065768;28;20501;-59
2024/01/07 09:19:13;;;;;;;;;;;;;;;3.90;77.10;101515.97;5064759;28;19928;-59
2024/01/07 09:21:41;;;;;;;;;;;;;;;3.89;78.15;101525.19;5065777;28;19936;-60
2024/01/07 09:24:08;;;;;;;;;;;;;;;3.84;78.54;101516.94;5048700;28;19931;-60
2024/01/07 09:26:35;;;;;;;;;;;;;;;4.25;77.91;101508.25;5054869;28;19934;-59
2024/01/07 09:29:02;;;;;;;;;;;;;;;4.18;76.24;101515.00;5041417;28;19940;-60
2024/01/07 09:31:29;;;;;;;;;;;;;;;4.05;76.57;101509.88;5030046;28;19925;-58
2024/01/07 09:34:12;;;;;;;;;;;;;;;4.05;76.75;101515.34;5067623;28;19931;-57
2024/01/07 09:36:45;;;;;;;;;;;;;;;4.05;76.77;101540.72;5069328;28;19936;-59
2024/01/07 09:39:20;;;;;;;;;;;;;;;3.98;77.30;101525.59;5062674;28;19931;-61
2024/01/07 09:41:51;;;;;;;;;;;;;;;3.94;77.51;101521.75;5064710;28;19924;-55
2024/01/07 09:44:19;;;;;;;;;;;;;;;4.04;76.97;101527.34;5058070;28;20367;-58
2024/01/07 09:46:53;;;;;;;;;;;;;;;3.74;77.71;101526.88;5058930;28;19935;-56
2024/01/07 09:49:20;;;;;;;;;;;;;;;3.83;78.57;101534.38;5057910;28;19943;-59
2024/01/07 09:51:47;;;;;;;;;;;;;;;3.86;78.70;101530.31;5045503;28;19925;-58
2024/01/07 09:54:16;;;;;;;;;;;;;;;3.85;78.62;101547.75;5056379;28;19935;-60
2024/01/07 09:56:47;;;;;;;;;;;;;;;3.88;78.02;101539.91;5075265;28;19924;-59
2024/01/07 09:59:14;;;;;;;;;;;;;;;3.86;78.35;101531.16;5095260;28;20401;-58
2024/01/07 10:01:42;;;;;;;;;;;;;;;3.86;78.76;101528.44;5050785;28;20430;-59
2024/01/07 10:04:09;;;;;;;;;;;;;;;3.83;79.36;101539.00;5072472;28;19924;-58
2024/01/07 10:06:37;;;;;;;;;;;;;;;4.19;79.02;101539.28;5062635;28;19925;-60
2024/01/07 10:09:06;;;;;;;;;;;;;;;4.26;78.29;101542.66;5074310;28;19925;-56
2024/01/07 10:11:33;;;;;;;;;;;;;;;4.18;78.05;101551.28;5057716;28;19924;-59
2024/01/07 10:14:00;;;;;;;;;;;;;;;4.15;78.00;101538.13;5066040;28;20476;-54
2024/01/07 10:16:27;;;;;;;;;;;;;;;3.95;78.65;101543.28;5065700;28;19955;-62
2024/01/07 10:18:54;;;;;;;;;;;;;;;4.13;79.41;101548.44;5050642;28;19929;-58
2024/01/07 10:21:21;;;;;;;;;;;;;;;4.21;78.86;101542.59;5062648;28;19924;-58
2024/01/07 10:23:48;;;;;;;;;;;;;;;4.16;78.66;101547.97;5054502;28;19925;-58
2024/01/07 10:26:21;;;;;;;;;;;;;;;4.16;79.29;101539.78;5050980;28;19925;-61
2024/01/07 10:29:18;;;;;;;;;;;;;;;4.24;78.54;101543.97;5068404;28;19999;-59
2024/01/07 10:31:45;;;;;;;;;;;;;;;4.39;79.05;101550.44;5050841;28;19931;-58
2024/01/07 10:34:12;;;;;;;;;;;;;;;4.36;78.15;101540.06;5067485;28;19935;-57
2024/01/07 10:36:39;;;;;;;;;;;;;;;4.13;78.06;101553.09;5058587;28;19924;-56
2024/01/07 10:39:07;;;;;;;;;;;;;;;3.74;79.14;101552.22;5054276;28;19924;-59
2024/01/07 10:41:34;;;;;;;;;;;;;;;3.82;79.60;101568.16;5059260;28;19924;-57
2024/01/07 10:44:01;;;;;;;;;;;;;;;3.99;79.11;101555.31;5070303;28;19955;-57
2024/01/07 10:46:30;;;;;;;;;;;;;;;4.06;78.94;101553.25;5077368;28;19925;-59
2024/01/07 10:49:04;;;;;;;;;;;;;;;4.08;78.69;101556.56;5069843;28;19920;-58
2024/01/07 10:51:33;;;;;;;;;;;;;;;4.26;77.95;101544.53;5064630;28;19924;-55
2024/01/07 10:54:00;;;;;;;;;;;;;;;4.18;77.97;101553.16;5074106;28;20031;-59
2024/01/07 10:56:39;;;;;;;;;;;;;;;4.14;78.24;101557.47;5069896;28;19920;-58
2024/01/07 10:59:06;;;;;;;;;;;;;;;3.97;79.00;101546.59;5052828;28;19920;-57
2024/01/07 11:01:33;;;;;;;;;;;;;;;4.14;79.23;101546.56;5089136;28;19931;-57
2024/01/07 11:04:19;;;;;;;;;;;;;;;3.99;79.11;101546.34;5058210;28;19925;-60
2024/01/07 11:06:49;;;;;;;;;;;;;;;3.95;79.44;101539.72;5061260;28;19940;-58
2024/01/07 11:09:19;;;;;;;;;;;;;;;4.33;79.40;101539.72;5064822;28;19924;-57
2024/01/07 11:11:47;;;;;;;;;;;;;;;4.15;79.05;101540.03;5080882;28;19925;-56
2024/01/07 11:14:33;;;;;;;;;;;;;;;4.27;78.36;101552.47;5068485;28;19935;-57
2024/01/07 11:17:00;;;;;;;;;;;;;;;4.33;78.56;101546.03;5061357;28;19932;-56
2024/01/07 11:19:27;;;;;;;;;;;;;;;4.14;78.88;101539.22;5067592;28;19924;-57
2024/01/07 11:22:13;;;;;;;;;;;;;;;3.98;79.18;101566.47;5069286;28;19924;-56
2024/01/07 11:24:42;;;;;;;;;;;;;;;3.88;79.90;101552.69;5065801;28;19936;-56
2024/01/07 11:27:09;;;;;;;;;;;;;;;3.96;79.11;101555.84;5075122;28;19925;-57
2024/01/07 11:29:36;;;;;;;;;;;;;;;3.94;79.33;101557.97;5064812;28;20182;-55
2024/01/07 11:32:04;;;;;;;;;;;;;;;3.83;80.18;101556.19;5065566;28;20870;-57
2024/01/07 11:34:41;;;;;;;;;;;;;;;3.74;80.35;101556.84;5054609;28;19925;-58
2024/01/07 11:37:12;;;;;;;;;;;;;;;3.88;80.61;101559.00;5088105;28;19924;-60
2024/01/07 11:39:44;;;;;;;;;;;;;;;3.94;79.66;101554.44;5059004;28;19921;-58
2024/01/07 11:42:14;;;;;;;;;;;;;;;3.99;80.62;101552.59;5072525;28;20523;-55
2024/01/07 11:44:48;;;;;;;;;;;;;;;4.13;80.42;101543.00;5064690;28;19934;-60
2024/01/07 11:47:16;;;;;;;;;;;;;;;4.30;79.48;101562.91;5063900;28;20377;-57
2024/01/07 11:49:43;;;;;;;;;;;;;;;3.76;81.32;101566.44;5092302;28;19924;-58
2024/01/07 11:52:11;;;;;;;;;;;;;;;3.79;82.00;101570.53;5067960;28;19920;-55
2024/01/07 11:54:39;;;;;;;;;;;;;;;3.92;81.45;101560.16;5055517;28;19928;-56
2024/01/07 11:57:06;;;;;;;;;;;;;;;3.73;82.36;101564.19;5066973;28;20366;-59
2024/01/07 11:59:34;;;;;;;;;;;;;;;4.00;81.45;101562.44;5062730;28;19924;-59
2024/01/07 12:02:02;;;;;;;;;;;;;;;3.61;82.74;101555.25;5079229;28;19925;-58
2024/01/07 12:04:29;;;;;;;;;;;;;;;3.93;83.07;101561.78;5090397;28;19931;-58
2024/01/07 12:06:56;;;;;;;;;;;;;;;4.08;81.22;101567.47;5064193;28;19920;-57
2024/01/07 12:09:24;;;;;;;;;;;;;;;3.75;82.22;101578.38;5062853;28;20567;-58
2024/01/07 12:11:51;;;;;;;;;;;;;;;3.70;83.11;101555.66;5067618;28;19924;-58
2024/01/07 12:14:19;;;;;;;;;;;;;;;3.47;84.00;101561.28;5067622;28;19931;-59
2024/01/07 12:16:46;;;;;;;;;;;;;;;3.58;85.07;101558.47;5055459;28;19921;-60
2024/01/07 12:19:13;;;;;;;;;;;;;;;3.52;85.19;101573.09;5062909;28;20300;-59
2024/01/07 12:21:40;;;;;;;;;;;;;;;3.54;85.82;101557.31;5084261;28;19983;-57
2024/01/07 12:24:08;;;;;;;;;;;;;;;3.24;86.92;101554.09;5068207;28;19924;-59
2024/01/07 12:26:37;;;;;;;;;;;;;;;3.33;87.44;101558.03;5068129;28;19924;-59
2024/01/07 12:29:06;;;;;;;;;;;;;;;3.49;86.70;101562.69;5060589;28;19931;-57
2024/01/07 12:31:34;;;;;;;;;;;;;;;3.44;86.38;101558.00;5056251;28;19924;-60
2024/01/07 12:34:02;;;;;;;;;;;;;;;3.47;86.63;101571.09;5064995;28;19932;-56
2024/01/07 12:36:31;;;;;;;;;;;;;;;3.51;86.33;101548.81;5083221;28;19936;-60
2024/01/07 12:38:58;;;;;;;;;;;;;;;3.61;86.50;101559.91;5058701;28;19927;-62
2024/01/07 12:41:26;;;;;;;;;;;;;;;3.56;87.08;101557.09;5072533;28;19925;-58
2024/01/07 12:43:53;;;;;;;;;;;;;;;3.78;86.68;101547.94;5072614;28;20434;-61
2024/01/07 12:46:20;;;;;;;;;;;;;;;3.65;85.84;101550.97;5059812;28;20340;-59
2024/01/07 12:48:48;;;;;;;;;;;;;;;3.64;86.72;101567.56;5070050;28;19921;-58
2024/01/07 12:51:15;;;;;;;;;;;;;;;3.76;86.28;101557.41;5064475;28;19943;-60
2024/01/07 12:53:44;;;;;;;;;;;;;;;3.64;87.13;101549.34;5094958;28;19959;-62